createdAt,value
2016-06-28T00:00:57.035Z,15.8
2016-06-28T00:04:10.760Z,15.8
2016-06-28T00:07:24.337Z,15.9
2016-06-28T00:10:38.130Z,15.9
2016-06-28T00:13:56.243Z,15.9
2016-06-28T00:17:00.110Z,15.9
2016-06-28T00:20:11.503Z,15.9
2016-06-28T00:23:23.464Z,16
2016-06-28T00:26:37.135Z,16
2016-06-28T00:29:55.655Z,16
2016-06-28T00:32:59.417Z,16
2016-06-28T00:36:12.946Z,16
2016-06-28T00:39:26.582Z,16
2016-06-28T00:42:40.351Z,16.1
2016-06-28T00:45:59.090Z,16.1
2016-06-28T00:49:03.067Z,16.1
2016-06-28T00:52:16.827Z,16.1
2016-06-28T00:55:30.541Z,16.2
2016-06-28T00:58:42.455Z,16.2
2016-06-28T01:02:01.190Z,16.2
2016-06-28T01:05:05.142Z,16.2
2016-06-28T01:08:19.064Z,16.2
2016-06-28T01:11:32.909Z,16.2
2016-06-28T01:14:51.672Z,16.2
2016-06-28T01:18:00.627Z,16.2
2016-06-28T01:21:04.603Z,16.3
2016-06-28T01:24:16.555Z,16.2
2016-06-28T01:27:32.282Z,16.3
2016-06-28T01:30:45.536Z,16.3
2016-06-28T01:33:59.181Z,16.2
2016-06-28T01:37:12.887Z,16.2
2016-06-28T01:40:24.722Z,16.2
2016-06-28T01:43:40.387Z,16.2
2016-06-28T01:46:59.282Z,16.1
2016-06-28T01:50:03.307Z,16.1
2016-06-28T01:53:16.993Z,16.1
2016-06-28T01:56:30.566Z,16.1
2016-06-28T01:59:44.290Z,16
2016-06-28T02:02:56.302Z,16
2016-06-28T02:06:09.663Z,16
2016-06-28T02:09:23.089Z,16
2016-06-28T02:12:36.586Z,16
2016-06-28T02:15:55.212Z,16
2016-06-28T02:18:59.262Z,15.9
2016-06-28T02:22:12.775Z,15.9
2016-06-28T02:25:25.572Z,15.9
2016-06-28T02:28:39.403Z,15.9
2016-06-28T02:31:57.977Z,15.9
2016-06-28T02:35:01.853Z,15.9
2016-06-28T02:38:15.704Z,15.9
2016-06-28T02:41:29.338Z,15.9
2016-06-28T02:44:43.129Z,15.8
2016-06-28T02:47:56.710Z,15.8
2016-06-28T02:51:10.439Z,15.8
2016-06-28T02:54:24.179Z,15.8
2016-06-28T02:57:37.838Z,15.8
2016-06-28T03:00:56.375Z,15.7
2016-06-28T03:04:00.308Z,15.7
2016-06-28T03:07:14.054Z,15.7
2016-06-28T03:10:27.563Z,15.7
2016-06-28T03:13:41.210Z,15.7
2016-06-28T03:16:59.761Z,15.8
2016-06-28T03:20:03.652Z,15.8
2016-06-28T03:23:16.795Z,15.8
2016-06-28T03:26:34.671Z,15.8
2016-06-28T03:29:44.289Z,15.8
2016-06-28T03:32:58.032Z,15.8
2016-06-28T03:36:11.859Z,15.8
2016-06-28T03:39:25.591Z,15.8
2016-06-28T03:42:39.372Z,15.8
2016-06-28T03:45:57.950Z,15.8
2016-06-28T03:49:02.046Z,15.8
2016-06-28T03:52:15.667Z,15.8
2016-06-28T03:55:29.468Z,15.8
2016-06-28T03:58:43.424Z,15.8
2016-06-28T04:01:57.214Z,15.8
2016-06-28T04:05:10.794Z,15.8
2016-06-28T04:08:24.428Z,15.9
2016-06-28T04:11:38.266Z,15.9
2016-06-28T04:14:56.975Z,16
2016-06-28T04:18:00.903Z,16.1
2016-06-28T04:21:14.583Z,16.1
2016-06-28T04:24:28.317Z,16.2
2016-06-28T04:27:42.011Z,16.2
2016-06-28T04:31:00.825Z,16.2
2016-06-28T04:34:04.897Z,16.2
2016-06-28T04:37:18.492Z,16.2
2016-06-28T04:40:31.406Z,16.2
2016-06-28T04:43:41.691Z,16.1
2016-06-28T04:47:00.359Z,16.2
2016-06-28T04:50:04.576Z,16.2
2016-06-28T04:53:17.867Z,16.2
2016-06-28T04:56:31.636Z,16.3
2016-06-28T04:59:45.451Z,16.4
2016-06-28T05:02:59.302Z,16.4
2016-06-28T05:06:13.267Z,16.4
2016-06-28T05:09:27.026Z,16.4
2016-06-28T05:12:40.929Z,16.5
2016-06-28T05:15:58.307Z,16.6
2016-06-28T05:19:02.486Z,16.7
2016-06-28T05:22:16.155Z,16.7
2016-06-28T05:25:30.212Z,16.6
2016-06-28T05:28:42.275Z,16.5
2016-06-28T05:32:01.243Z,16.4
2016-06-28T05:35:05.300Z,16.3
2016-06-28T05:38:18.940Z,16.2
2016-06-28T05:41:32.635Z,16.1
2016-06-28T05:44:46.376Z,16.1
2016-06-28T05:47:59.582Z,16.1
2016-06-28T05:51:12.518Z,16.1
2016-06-28T05:54:26.157Z,16
2016-06-28T05:57:37.682Z,15.9
2016-06-28T06:00:56.493Z,15.8
2016-06-28T06:04:00.525Z,15.8
2016-06-28T06:07:12.965Z,15.7
2016-06-28T06:10:26.670Z,15.7
2016-06-28T06:13:40.529Z,15.8
2016-06-28T06:16:59.529Z,16
2016-06-28T06:20:03.803Z,16.2
2016-06-28T06:23:17.585Z,16.2
2016-06-28T06:26:28.931Z,16.1
2016-06-28T06:29:42.939Z,16.2
2016-06-28T06:33:01.803Z,16.3
2016-06-28T06:36:05.960Z,16.5
2016-06-28T06:39:19.820Z,16.6
2016-06-28T06:42:33.772Z,16.6
2016-06-28T06:45:46.275Z,16.6
2016-06-28T06:48:59.622Z,16.8
2016-06-28T06:52:13.955Z,17.5
2016-06-28T06:55:28.324Z,17.8
2016-06-28T06:58:42.558Z,17.7
2016-06-28T07:01:58.499Z,18.5
2016-06-28T07:05:03.099Z,19.5
2016-06-28T07:08:17.610Z,19.7
2016-06-28T07:11:31.610Z,19.3
2016-06-28T07:14:45.570Z,18.9
2016-06-28T07:17:59.538Z,18.4
2016-06-28T07:21:13.238Z,17.8
2016-06-28T07:24:26.948Z,17.1
2016-06-28T07:27:39.770Z,17.2
2016-06-28T07:30:57.558Z,17.9
2016-06-28T07:34:02.036Z,18.1
2016-06-28T07:37:12.740Z,18
2016-06-28T07:40:26.714Z,17.8
2016-06-28T07:43:40.838Z,18
2016-06-28T07:47:00.211Z,18.8
2016-06-28T07:50:04.834Z,18.8
2016-06-28T07:53:19.047Z,18.3
2016-06-28T07:56:31.815Z,17.6
2016-06-28T07:59:45.726Z,17.2
2016-06-28T08:02:59.777Z,16.9
2016-06-28T08:06:10.943Z,18
2016-06-28T08:09:24.101Z,19.7
2016-06-28T08:12:39.250Z,21.2
2016-06-28T08:15:58.934Z,20.7
2016-06-28T08:19:03.884Z,20.8
2016-06-28T08:22:18.218Z,20.6
2016-06-28T08:25:32.818Z,21.6
2016-06-28T08:28:46.726Z,21.4
2016-06-28T08:31:59.561Z,20.9
2016-06-28T08:35:12.674Z,21.3
2016-06-28T08:38:27.049Z,21.5
2016-06-28T08:41:41.925Z,22.9
2016-06-28T08:45:01.444Z,23.6
2016-06-28T08:48:06.760Z,24.2
2016-06-28T08:51:22.144Z,24.7
2016-06-28T08:54:37.415Z,25.1
2016-06-28T08:57:57.545Z,25.2
2016-06-28T09:01:03.015Z,25.6
2016-06-28T09:04:14.230Z,25.2
2016-06-28T09:07:28.911Z,26
2016-06-28T09:10:43.527Z,25.7
2016-06-28T09:13:57.990Z,25
2016-06-28T09:17:12.802Z,25.5
2016-06-28T09:20:27.238Z,25.6
2016-06-28T09:23:40.238Z,26.2
2016-06-28T09:26:57.703Z,26.6
2016-06-28T09:30:12.820Z,26.8
2016-06-28T09:33:27.718Z,25.6
2016-06-28T09:36:40.160Z,25.3
2016-06-28T09:40:01.973Z,26.2
2016-06-28T09:43:07.076Z,25.6
2016-06-28T09:46:21.292Z,24.4
2016-06-28T09:49:35.234Z,23.4
2016-06-28T09:52:54.381Z,22.9
2016-06-28T09:55:58.783Z,22.5
2016-06-28T09:59:11.693Z,22.1
2016-06-28T10:02:25.951Z,21.7
2016-06-28T10:05:40.605Z,22.5
2016-06-28T10:08:58.368Z,22.7
2016-06-28T10:12:03.072Z,22.4
2016-06-28T10:15:17.337Z,21.7
2016-06-28T10:18:31.531Z,21.3
2016-06-28T10:21:45.560Z,21.1
2016-06-28T10:24:59.818Z,20.8
2016-06-28T10:28:13.927Z,20.7
2016-06-28T10:31:27.986Z,20.5
2016-06-28T10:34:42.244Z,20.8
2016-06-28T10:38:01.711Z,21
2016-06-28T10:41:06.469Z,21.2
2016-06-28T10:44:20.852Z,21.3
2016-06-28T10:47:35.150Z,20.9
2016-06-28T10:50:54.524Z,20.6
2016-06-28T10:53:58.954Z,20.4
2016-06-28T10:57:11.369Z,20.4
2016-06-28T11:00:27.613Z,20.3
2016-06-28T11:03:41.892Z,20.5
2016-06-28T11:07:00.684Z,20.7
2016-06-28T11:10:05.294Z,20.8
2016-06-28T11:13:19.398Z,20.6
2016-06-28T11:16:33.428Z,20.3
2016-06-28T11:19:52.854Z,20.3
2016-06-28T11:23:02.158Z,20.1
2016-06-28T11:26:06.489Z,20
2016-06-28T11:29:20.678Z,20
2016-06-28T11:32:32.376Z,19.9
2016-06-28T11:35:45.870Z,19.7
2016-06-28T11:38:59.854Z,19.7
2016-06-28T11:42:14.134Z,19.7
2016-06-28T11:45:28.153Z,19.6
2016-06-28T11:48:41.858Z,19.6
2016-06-28T11:52:00.962Z,19.5
2016-06-28T11:55:05.584Z,19.4
2016-06-28T11:58:19.438Z,19.4
2016-06-28T12:01:33.739Z,19.4
2016-06-28T12:04:46.893Z,19.5
2016-06-28T12:08:00.831Z,19.5
2016-06-28T12:11:15.067Z,19.5
2016-06-28T12:14:29.177Z,19.5
2016-06-28T12:17:40.251Z,19.4
2016-06-28T12:20:59.349Z,19.4
2016-06-28T12:24:03.950Z,19.5
2016-06-28T12:27:16.157Z,19.6
2016-06-28T12:30:28.490Z,19.6
2016-06-28T12:33:42.756Z,19.7
2016-06-28T12:37:01.800Z,19.6
2016-06-28T12:40:06.393Z,19.6
2016-06-28T12:43:20.411Z,19.7
2016-06-28T12:46:34.864Z,19.8
2016-06-28T12:49:54.241Z,19.8
2016-06-28T12:52:58.751Z,19.8
2016-06-28T12:56:13.060Z,19.9
2016-06-28T12:59:27.218Z,19.9
2016-06-28T13:02:36.635Z,19.9
2016-06-28T13:05:57.544Z,19.9
2016-06-28T13:09:02.180Z,19.8
2016-06-28T13:12:16.286Z,19.8
2016-06-28T13:15:30.535Z,19.8
2016-06-28T13:18:44.913Z,19.7
2016-06-28T13:21:59.029Z,19.7
2016-06-28T13:25:13.274Z,19.7
2016-06-28T13:28:27.535Z,19.7
2016-06-28T13:31:41.983Z,19.8
2016-06-28T13:35:00.928Z,19.8
2016-06-28T13:38:05.608Z,19.8
2016-06-28T13:41:19.898Z,19.9
2016-06-28T13:44:34.232Z,19.9
2016-06-28T13:47:53.555Z,20
2016-06-28T13:50:58.206Z,20
2016-06-28T13:54:10.734Z,20
2016-06-28T13:57:25.029Z,20
2016-06-28T14:00:39.487Z,20
2016-06-28T14:03:57.633Z,19.9
2016-06-28T14:07:02.199Z,19.9
2016-06-28T14:10:16.340Z,19.9
2016-06-28T14:13:30.626Z,20
2016-06-28T14:16:44.972Z,20
2016-06-28T14:19:59.268Z,20
2016-06-28T14:23:10.530Z,19.9
2016-06-28T14:26:24.826Z,19.9
2016-06-28T14:29:39.089Z,19.9
2016-06-28T14:32:55.318Z,19.7
2016-06-28T14:36:00.015Z,19.7
2016-06-28T14:39:11.149Z,19.7
2016-06-28T14:42:25.259Z,19.7
2016-06-28T14:45:39.417Z,19.7
2016-06-28T14:48:58.299Z,19.6
2016-06-28T14:52:02.894Z,19.6
2016-06-28T14:55:17.147Z,19.6
2016-06-28T14:58:31.543Z,19.6
2016-06-28T15:01:45.744Z,19.6
2016-06-28T15:05:00.107Z,19.6
2016-06-28T15:08:14.377Z,19.6
2016-06-28T15:11:28.747Z,19.6
2016-06-28T15:14:41.145Z,19.6
2016-06-28T15:18:02.446Z,19.6
2016-06-28T15:21:07.011Z,19.6
2016-06-28T15:24:21.302Z,19.6
2016-06-28T15:27:35.818Z,19.6
2016-06-28T15:30:54.830Z,19.5
2016-06-28T15:33:59.285Z,19.5
2016-06-28T15:37:13.019Z,19.5
2016-06-28T15:40:26.957Z,19.5
2016-06-28T15:43:39.407Z,19.4
2016-06-28T15:46:58.649Z,19.4
2016-06-28T15:50:03.168Z,19.4
2016-06-28T15:53:14.678Z,19.4
2016-06-28T15:56:29.013Z,19.4
2016-06-28T15:59:42.079Z,19.4
2016-06-28T16:03:01.331Z,19.5
2016-06-28T16:06:05.934Z,19.4
2016-06-28T16:09:20.234Z,19.4
2016-06-28T16:12:34.132Z,19.3
2016-06-28T16:15:53.178Z,19.2
2016-06-28T16:19:02.720Z,19.2
2016-06-28T16:22:07.150Z,19.2
2016-06-28T16:25:19.159Z,19.1
2016-06-28T16:28:30.175Z,19.1
2016-06-28T16:31:43.989Z,19
2016-06-28T16:35:02.903Z,19
2016-06-28T16:38:07.483Z,19
2016-06-28T16:41:21.649Z,19
2016-06-28T16:44:35.709Z,19
2016-06-28T16:47:54.769Z,18.9
2016-06-28T16:50:59.267Z,18.9
2016-06-28T16:54:10.993Z,18.9
2016-06-28T16:57:25.369Z,18.9
2016-06-28T17:00:39.422Z,18.8
2016-06-28T17:03:57.573Z,18.7
2016-06-28T17:07:01.874Z,18.6
2016-06-28T17:10:16.022Z,18.6
2016-06-28T17:13:30.430Z,18.7
2016-06-28T17:16:42.229Z,18.7
2016-06-28T17:20:01.353Z,18.7
2016-06-28T17:23:05.800Z,18.8
2016-06-28T17:26:17.746Z,18.9
2016-06-28T17:29:32.048Z,18.9
2016-06-28T17:32:46.478Z,18.8
2016-06-28T17:36:02.607Z,18.8
2016-06-28T17:39:07.089Z,18.7
2016-06-28T17:42:18.683Z,18.6
2016-06-28T17:45:32.818Z,18.6
2016-06-28T17:48:46.895Z,18.6
2016-06-28T17:52:00.726Z,18.5
2016-06-28T17:55:14.734Z,18.5
2016-06-28T17:58:28.757Z,18.5
2016-06-28T18:01:40.998Z,18.4
2016-06-28T18:04:57.721Z,18.4
2016-06-28T18:08:02.054Z,18.4
2016-06-28T18:11:15.854Z,18.3
2016-06-28T18:14:29.978Z,18.3
2016-06-28T18:17:44.044Z,18.2
2016-06-28T18:21:00.475Z,18.2
2016-06-28T18:24:04.837Z,18.2
2016-06-28T18:27:18.749Z,18.2
2016-06-28T18:30:32.839Z,18.1
2016-06-28T18:33:46.749Z,18.1
2016-06-28T18:37:00.694Z,18
2016-06-28T18:40:14.791Z,18
2016-06-28T18:43:26.087Z,17.9
2016-06-28T18:46:38.533Z,17.9
2016-06-28T18:49:57.151Z,17.8
2016-06-28T18:53:01.388Z,17.8
2016-06-28T18:56:15.284Z,17.8
2016-06-28T18:59:29.282Z,17.7
2016-06-28T19:02:43.070Z,17.6
2016-06-28T19:06:02.054Z,17.5
2016-06-28T19:09:06.314Z,17.5
2016-06-28T19:12:18.046Z,17.4
2016-06-28T19:15:33.754Z,17.4
2016-06-28T19:18:47.494Z,17.3
2016-06-28T19:22:01.429Z,17.3
2016-06-28T19:25:15.374Z,17.3
2016-06-28T19:28:29.339Z,17.2
2016-06-28T19:31:43.258Z,17.1
2016-06-28T19:35:01.602Z,17.1
2016-06-28T19:38:05.728Z,17
2016-06-28T19:41:19.541Z,17
2016-06-28T19:44:33.416Z,16.9
2016-06-28T19:47:47.266Z,16.9
2016-06-28T19:51:00.877Z,16.8
2016-06-28T19:54:14.574Z,16.7
2016-06-28T19:57:27.808Z,16.7
2016-06-28T20:00:41.454Z,16.6
2016-06-28T20:03:59.322Z,16.6
2016-06-28T20:07:03.271Z,16.5
2016-06-28T20:10:16.879Z,16.5
2016-06-28T20:13:30.689Z,16.4
2016-06-28T20:16:44.315Z,16.4
2016-06-28T20:20:02.989Z,16.3
2016-06-28T20:23:06.426Z,16.3
2016-06-28T20:26:19.629Z,16.2
2016-06-28T20:29:32.999Z,16.1
2016-06-28T20:32:44.415Z,16.1
2016-06-28T20:35:59.565Z,16
2016-06-28T20:39:12.593Z,15.9
2016-06-28T20:42:25.863Z,15.9
2016-06-28T20:45:39.089Z,15.9
2016-06-28T20:48:55.068Z,15.8
2016-06-28T20:52:03.429Z,15.7
2016-06-28T20:55:06.686Z,15.7
2016-06-28T20:58:17.661Z,15.7
2016-06-28T21:01:32.987Z,15.6
2016-06-28T21:04:46.171Z,15.5
2016-06-28T21:08:04.042Z,15.5
2016-06-28T21:11:07.326Z,15.4
2016-06-28T21:14:16.279Z,15.4
2016-06-28T21:17:29.162Z,15.4
2016-06-28T21:20:42.116Z,15.3
2016-06-28T21:23:57.426Z,15.3
2016-06-28T21:26:58.402Z,15.2
2016-06-28T21:30:13.073Z,15.2
2016-06-28T21:33:25.724Z,15.2
2016-06-28T21:36:38.287Z,15.2
2016-06-28T21:39:55.422Z,15.1
2016-06-28T21:43:03.164Z,15.1
2016-06-28T21:46:05.753Z,15
2016-06-28T21:49:18.567Z,15
2016-06-28T21:52:31.258Z,14.8
2016-06-28T21:55:41.032Z,14.8
2016-06-28T21:58:54.849Z,14.8
2016-06-28T22:02:02.513Z,14.8
2016-06-28T22:05:05.110Z,14.7
2016-06-28T22:08:17.557Z,14.7
2016-06-28T22:11:27.790Z,14.8
2016-06-28T22:14:39.737Z,14.7
2016-06-28T22:17:57.162Z,14.7
2016-06-28T22:20:59.882Z,14.6
2016-06-28T22:24:12.621Z,14.6
2016-06-28T22:27:25.154Z,14.5
2016-06-28T22:30:37.965Z,14.3
2016-06-28T22:33:48.663Z,14.3
2016-06-28T22:37:01.492Z,14.3
2016-06-28T22:40:14.145Z,14.3
2016-06-28T22:43:26.898Z,14.3
2016-06-28T22:46:39.625Z,14.3
2016-06-28T22:49:57.003Z,14.2
2016-06-28T22:53:04.637Z,14.2
2016-06-28T22:56:07.185Z,14.1
2016-06-28T22:59:17.064Z,14.1
2016-06-28T23:02:26.301Z,14.1
2016-06-28T23:05:38.578Z,14
2016-06-28T23:08:49.041Z,13.9
2016-06-28T23:12:01.479Z,13.8
2016-06-28T23:15:13.798Z,13.9
2016-06-28T23:18:25.718Z,13.9
2016-06-28T23:21:37.855Z,13.8
2016-06-28T23:24:49.411Z,13.8
2016-06-28T23:28:00.147Z,13.8
2016-06-28T23:31:14.680Z,13.7
2016-06-28T23:34:27.447Z,13.7
2016-06-28T23:37:40.146Z,13.7
2016-06-28T23:40:57.375Z,13.6
2016-06-28T23:44:05.096Z,13.6
2016-06-28T23:47:07.461Z,13.6
2016-06-28T23:50:19.708Z,13.5
2016-06-28T23:53:29.929Z,13.5
2016-06-28T23:56:42.298Z,13.4
2016-06-28T23:59:58.782Z,13.4
